createdAt,value
2018-06-18T00:00:27.980Z,72.88
2018-06-18T00:02:57.825Z,72.39
2018-06-18T00:05:27.688Z,73.08
2018-06-18T00:07:57.594Z,73.01
2018-06-18T00:10:27.672Z,73.65
2018-06-18T00:12:57.468Z,72.99
2018-06-18T00:15:27.305Z,73.20
2018-06-18T00:17:57.168Z,72.75
2018-06-18T00:20:27.049Z,72.98
2018-06-18T00:22:56.895Z,72.85
2018-06-18T00:25:26.697Z,72.23
2018-06-18T00:27:56.529Z,71.90
2018-06-18T00:30:26.537Z,73.11
2018-06-18T00:32:56.336Z,72.48
2018-06-18T00:35:26.172Z,72.89
2018-06-18T00:37:55.968Z,72.89
2018-06-18T00:40:25.795Z,72.32
2018-06-18T00:42:55.599Z,72.68
2018-06-18T00:45:25.440Z,73.31
2018-06-18T00:47:55.256Z,72.72
2018-06-18T00:50:25.090Z,72.53
2018-06-18T00:52:54.919Z,72.63
2018-06-18T00:55:35.556Z,72.20
2018-06-18T00:58:05.436Z,72.77
2018-06-18T01:00:35.308Z,73.37
2018-06-18T01:03:05.144Z,73.70
2018-06-18T01:05:34.992Z,73.64
2018-06-18T01:08:04.836Z,71.58
2018-06-18T01:10:34.740Z,72.33
2018-06-18T01:13:04.600Z,72.10
2018-06-18T01:15:34.423Z,71.50
2018-06-18T01:18:04.284Z,72.05
2018-06-18T01:20:34.116Z,72.08
2018-06-18T01:23:10.022Z,72.47
2018-06-18T01:25:40.160Z,72.82
2018-06-18T01:28:10.021Z,73.23
2018-06-18T01:30:39.860Z,74.23
2018-06-18T01:33:09.688Z,73.28
2018-06-18T01:35:39.528Z,73.89
2018-06-18T01:38:09.340Z,73.38
2018-06-18T01:40:39.187Z,74.62
2018-06-18T01:43:09.032Z,73.66
2018-06-18T01:45:38.844Z,74.41
2018-06-18T01:48:08.652Z,74.92
2018-06-18T01:50:38.492Z,74.10
2018-06-18T01:53:08.348Z,73.98
2018-06-18T01:55:38.170Z,73.82
2018-06-18T01:58:08.023Z,74.46
2018-06-18T02:00:37.829Z,74.15
2018-06-18T02:03:07.696Z,74.64
2018-06-18T02:05:37.556Z,75.00
2018-06-18T02:08:07.448Z,75.15
2018-06-18T02:10:37.265Z,74.79
2018-06-18T02:13:07.364Z,74.37
2018-06-18T02:15:37.183Z,75.04
2018-06-18T02:18:07.055Z,74.61
2018-06-18T02:20:36.940Z,75.05
2018-06-18T02:23:06.835Z,74.27
2018-06-18T02:25:36.679Z,74.78
2018-06-18T02:28:11.627Z,74.11
2018-06-18T02:30:46.550Z,73.82
2018-06-18T02:33:21.491Z,73.48
2018-06-18T02:35:56.356Z,73.37
2018-06-18T02:38:31.296Z,72.98
2018-06-18T02:41:01.107Z,72.57
2018-06-18T02:43:30.944Z,72.85
2018-06-18T02:46:00.799Z,72.62
2018-06-18T02:48:30.600Z,72.30
2018-06-18T02:51:00.458Z,70.95
2018-06-18T02:53:30.308Z,71.27
2018-06-18T02:56:00.544Z,71.06
2018-06-18T02:58:30.348Z,71.23
2018-06-18T03:01:00.232Z,70.66
2018-06-18T03:03:30.047Z,70.27
2018-06-18T03:05:59.929Z,69.22
2018-06-18T03:08:29.741Z,68.54
2018-06-18T03:10:59.524Z,67.70
2018-06-18T03:13:29.363Z,67.66
2018-06-18T03:15:59.309Z,68.01
2018-06-18T03:18:34.253Z,68.09
2018-06-18T03:23:13.314Z,68.35
2018-06-18T03:25:48.246Z,67.95
2018-06-18T03:28:23.166Z,70.38
2018-06-18T03:30:52.994Z,70.35
2018-06-18T03:33:22.821Z,70.33
2018-06-18T03:35:52.668Z,69.91
2018-06-18T03:38:22.486Z,67.23
2018-06-18T03:40:52.324Z,66.71
2018-06-18T03:43:22.140Z,67.55
2018-06-18T03:45:51.925Z,67.48
2018-06-18T03:48:21.794Z,66.89
2018-06-18T03:50:51.589Z,67.37
2018-06-18T03:53:21.457Z,67.14
2018-06-18T03:55:53.976Z,67.98
2018-06-18T03:58:23.795Z,68.44
2018-06-18T04:04:14.350Z,68.73
2018-06-18T04:06:49.192Z,70.01
2018-06-18T04:09:24.037Z,69.54
2018-06-18T04:11:58.881Z,69.37
2018-06-18T04:14:28.744Z,67.60
2018-06-18T04:16:58.589Z,66.82
2018-06-18T04:19:28.560Z,64.93
2018-06-18T04:21:58.404Z,63.69
2018-06-18T04:24:28.280Z,63.03
2018-06-18T04:26:58.383Z,63.43
2018-06-18T04:29:28.209Z,63.52
2018-06-18T04:31:58.008Z,62.70
2018-06-18T04:35:04.941Z,63.05
2018-06-18T04:37:34.757Z,62.78
2018-06-18T04:40:04.996Z,62.12
2018-06-18T04:42:39.880Z,61.03
2018-06-18T04:45:14.797Z,61.07
2018-06-18T04:47:49.596Z,61.23
2018-06-18T04:50:24.427Z,61.16
2018-06-18T04:52:54.287Z,61.25
2018-06-18T04:55:24.155Z,61.17
2018-06-18T04:57:53.972Z,61.11
2018-06-18T05:00:37.664Z,59.32
2018-06-18T05:03:08.093Z,59.51
2018-06-18T05:05:37.975Z,57.58
2018-06-18T05:10:18.589Z,57.21
2018-06-18T05:12:48.442Z,56.39
2018-06-18T05:15:19.096Z,57.57
2018-06-18T05:17:48.929Z,57.42
2018-06-18T05:20:19.415Z,60.86
2018-06-18T05:22:49.272Z,57.44
2018-06-18T05:25:19.100Z,57.52
2018-06-18T05:27:48.969Z,57.01
2018-06-18T05:30:21.681Z,56.28
2018-06-18T05:32:51.872Z,55.72
2018-06-18T05:35:21.922Z,56.23
2018-06-18T05:37:58.848Z,56.51
2018-06-18T05:40:29.043Z,55.71
2018-06-18T05:42:59.084Z,55.13
2018-06-18T05:45:28.888Z,52.28
2018-06-18T05:47:58.744Z,53.28
2018-06-18T05:50:28.697Z,52.61
2018-06-18T05:52:58.485Z,54.51
2018-06-18T05:55:28.365Z,53.17
2018-06-18T05:57:58.188Z,53.93
2018-06-18T06:00:28.084Z,54.01
2018-06-18T06:02:57.928Z,54.06
2018-06-18T06:05:27.772Z,53.46
2018-06-18T06:07:58.836Z,53.69
2018-06-18T06:10:42.608Z,54.43
2018-06-18T06:13:16.529Z,52.72
2018-06-18T06:15:52.808Z,52.80
2018-06-18T06:18:27.037Z,51.61
2018-06-18T06:21:03.242Z,51.59
2018-06-18T06:23:47.568Z,50.92
2018-06-18T06:26:20.660Z,49.79
2018-06-18T06:28:53.257Z,49.39
2018-06-18T06:31:23.296Z,49.00
2018-06-18T06:33:53.223Z,49.16
2018-06-18T06:36:25.693Z,50.13
2018-06-18T06:38:55.620Z,50.30
2018-06-18T06:41:27.031Z,48.11
2018-06-18T06:43:57.028Z,48.87
2018-06-18T06:46:26.856Z,47.88
2018-06-18T06:48:56.721Z,48.56
2018-06-18T06:51:26.838Z,47.95
2018-06-18T06:53:57.253Z,49.00
2018-06-18T06:56:27.204Z,51.76
2018-06-18T06:58:57.270Z,48.51
2018-06-18T07:01:27.136Z,45.91
2018-06-18T07:03:56.985Z,44.57
2018-06-18T07:06:26.948Z,41.30
2018-06-18T07:08:56.868Z,41.98
2018-06-18T07:11:26.860Z,41.79
2018-06-18T07:13:56.680Z,42.33
2018-06-18T07:16:26.701Z,42.71
2018-06-18T07:18:56.737Z,43.70
2018-06-18T07:21:26.597Z,42.86
2018-06-18T07:23:56.531Z,44.56
2018-06-18T07:26:26.372Z,42.89
2018-06-18T07:28:56.316Z,42.06
2018-06-18T07:31:26.336Z,41.91
2018-06-18T07:33:56.376Z,42.59
2018-06-18T07:36:26.248Z,42.54
2018-06-18T07:38:56.195Z,42.63
2018-06-18T07:41:26.076Z,42.21
2018-06-18T07:43:55.980Z,42.03
2018-06-18T07:46:25.965Z,41.55
2018-06-18T07:48:55.847Z,41.13
2018-06-18T07:51:25.729Z,40.18
2018-06-18T07:53:55.749Z,41.28
2018-06-18T07:56:25.674Z,40.64
2018-06-18T07:58:55.536Z,40.85
2018-06-18T08:01:25.416Z,39.97
2018-06-18T08:03:55.441Z,40.79
2018-06-18T08:06:25.300Z,41.21
2018-06-18T08:08:55.102Z,41.85
2018-06-18T08:11:24.977Z,40.67
2018-06-18T08:13:54.812Z,40.44
2018-06-18T08:16:24.688Z,41.04
2018-06-18T08:18:54.572Z,41.01
2018-06-18T08:21:25.684Z,41.17
2018-06-18T08:23:55.631Z,40.44
2018-06-18T08:26:25.569Z,41.41
2018-06-18T08:28:55.696Z,39.00
2018-06-18T08:31:25.653Z,37.94
2018-06-18T08:33:55.592Z,38.62
2018-06-18T08:36:25.821Z,37.10
2018-06-18T08:38:55.966Z,38.87
2018-06-18T08:41:25.800Z,35.96
2018-06-18T08:43:55.696Z,36.78
2018-06-18T08:46:25.594Z,36.27
2018-06-18T08:49:00.495Z,34.52
2018-06-18T08:51:35.392Z,35.65
2018-06-18T08:54:10.730Z,36.78
2018-06-18T08:56:45.778Z,37.34
2018-06-18T08:59:20.799Z,35.25
2018-06-18T09:01:51.245Z,37.48
2018-06-18T09:04:26.120Z,35.75
2018-06-18T09:07:01.017Z,34.73
2018-06-18T09:09:31.079Z,34.98
2018-06-18T09:12:01.035Z,34.22
2018-06-18T09:14:31.097Z,33.85
2018-06-18T09:17:01.045Z,34.46
2018-06-18T09:19:30.924Z,34.12
2018-06-18T09:22:00.776Z,35.70
2018-06-18T09:24:33.528Z,34.90
2018-06-18T09:27:08.612Z,34.54
2018-06-18T09:29:38.608Z,34.66
2018-06-18T09:32:13.564Z,33.70
2018-06-18T09:34:44.033Z,33.65
2018-06-18T09:37:13.892Z,33.05
2018-06-18T09:39:43.806Z,34.46
2018-06-18T09:42:13.761Z,33.50
2018-06-18T09:44:43.716Z,33.01
2018-06-18T09:47:13.616Z,33.71
2018-06-18T09:49:48.505Z,32.82
2018-06-18T09:52:23.414Z,33.26
2018-06-18T09:54:58.301Z,34.20
2018-06-18T09:57:33.127Z,33.10
2018-06-18T10:00:07.097Z,33.54
2018-06-18T10:02:37.011Z,32.69
2018-06-18T10:05:06.846Z,33.01
2018-06-18T10:07:36.722Z,33.14
2018-06-18T10:10:06.526Z,32.68
2018-06-18T10:12:36.387Z,33.56
2018-06-18T10:15:06.517Z,33.72
2018-06-18T10:17:36.373Z,32.82
2018-06-18T10:20:06.333Z,32.25
2018-06-18T10:22:36.193Z,31.96
2018-06-18T10:25:06.064Z,32.14
2018-06-18T10:27:35.865Z,31.74
2018-06-18T10:30:05.816Z,32.48
2018-06-18T10:32:40.647Z,32.92
2018-06-18T10:35:15.724Z,31.67
2018-06-18T10:37:50.712Z,31.30
2018-06-18T10:40:25.888Z,30.79
2018-06-18T10:43:00.896Z,31.57
2018-06-18T10:45:30.887Z,31.55
2018-06-18T10:48:00.879Z,31.42
2018-06-18T10:50:30.836Z,31.08
2018-06-18T10:53:00.637Z,30.53
2018-06-18T10:55:30.525Z,30.53
2018-06-18T10:58:00.388Z,30.93
2018-06-18T11:00:30.271Z,30.51
2018-06-18T11:03:00.076Z,31.51
2018-06-18T11:05:34.949Z,31.51
2018-06-18T11:08:05.017Z,32.52
2018-06-18T11:10:35.008Z,32.91
2018-06-18T11:13:04.916Z,32.16
2018-06-18T11:15:34.827Z,31.76
2018-06-18T11:18:09.820Z,32.43
2018-06-18T11:20:44.855Z,32.40
2018-06-18T11:23:19.692Z,32.19
2018-06-18T11:25:54.586Z,33.63
2018-06-18T11:28:24.514Z,33.65
2018-06-18T11:30:54.286Z,33.38
2018-06-18T11:33:24.126Z,33.15
2018-06-18T11:35:54.109Z,34.01
2018-06-18T11:38:24.007Z,35.65
2018-06-18T11:40:54.132Z,35.76
2018-06-18T11:43:24.103Z,35.93
2018-06-18T11:45:54.390Z,36.27
2018-06-18T11:48:24.443Z,37.64
2018-06-18T11:50:54.452Z,38.08
2018-06-18T11:53:24.347Z,38.21
2018-06-18T11:55:54.212Z,38.74
2018-06-18T11:58:29.351Z,38.34
2018-06-18T12:01:04.297Z,38.85
2018-06-18T12:03:39.328Z,38.68
2018-06-18T12:06:14.356Z,39.13
2018-06-18T12:08:49.310Z,38.43
2018-06-18T12:11:19.238Z,38.74
2018-06-18T12:13:49.425Z,38.46
2018-06-18T12:16:19.373Z,38.18
2018-06-18T12:18:49.256Z,37.99
2018-06-18T12:21:19.230Z,37.14
2018-06-18T12:23:49.073Z,37.62
2018-06-18T12:26:18.963Z,35.89
2018-06-18T12:28:48.860Z,34.81
2018-06-18T12:31:18.748Z,34.57
2018-06-18T12:33:49.072Z,35.04
2018-06-18T12:36:18.956Z,35.29
2018-06-18T12:38:48.808Z,36.06
2018-06-18T12:41:19.112Z,36.06
2018-06-18T12:43:53.585Z,36.31
2018-06-18T12:46:28.582Z,35.49
2018-06-18T12:49:03.392Z,35.24
2018-06-18T12:51:38.371Z,35.19
2018-06-18T12:54:13.272Z,38.84
2018-06-18T12:56:48.288Z,40.42
2018-06-18T12:59:18.246Z,41.31
2018-06-18T13:01:51.476Z,41.76
2018-06-18T13:04:21.475Z,42.26
2018-06-18T13:06:52.061Z,42.74
2018-06-18T13:09:21.896Z,43.48
2018-06-18T13:11:51.775Z,44.18
2018-06-18T13:14:21.592Z,44.93
2018-06-18T13:16:51.486Z,43.92
2018-06-18T13:19:21.464Z,44.95
2018-06-18T13:21:51.599Z,44.33
2018-06-18T13:24:21.428Z,46.36
2018-06-18T13:26:51.354Z,47.01
2018-06-18T13:29:21.406Z,48.52
2018-06-18T13:31:51.388Z,47.55
2018-06-18T13:34:21.254Z,47.95
2018-06-18T13:36:55.337Z,48.57
2018-06-18T13:39:30.420Z,48.47
2018-06-18T13:44:06.624Z,48.06
2018-06-18T13:46:41.460Z,48.76
2018-06-18T13:49:11.299Z,49.29
2018-06-18T13:51:41.181Z,48.83
2018-06-18T13:54:11.037Z,49.70
2018-06-18T13:56:40.944Z,49.19
2018-06-18T13:59:10.828Z,49.14
2018-06-18T14:01:40.770Z,50.48
2018-06-18T14:04:10.670Z,51.42
2018-06-18T14:06:40.493Z,51.39
2018-06-18T14:09:10.496Z,52.61
2018-06-18T14:11:40.529Z,53.00
2018-06-18T14:14:10.450Z,52.21
2018-06-18T14:16:40.384Z,52.41
2018-06-18T14:19:15.400Z,53.57
2018-06-18T14:21:45.335Z,55.62
2018-06-18T14:24:15.382Z,57.91
2018-06-18T14:26:45.224Z,60.79
2018-06-18T14:29:20.240Z,61.62
2018-06-18T14:31:55.156Z,62.01
2018-06-18T14:36:31.249Z,62.85
2018-06-18T14:39:06.012Z,63.17
2018-06-18T14:41:36.709Z,62.51
2018-06-18T14:44:06.548Z,62.69
2018-06-18T14:46:36.348Z,63.58
2018-06-18T14:49:06.340Z,63.94
2018-06-18T14:51:36.193Z,64.31
2018-06-18T14:54:06.081Z,62.92
2018-06-18T14:56:36.848Z,63.25
2018-06-18T14:59:11.313Z,63.12
2018-06-18T15:01:41.301Z,65.17
2018-06-18T15:04:11.136Z,63.83
2018-06-18T15:06:40.993Z,63.00
2018-06-18T15:09:12.339Z,62.37
2018-06-18T15:11:42.532Z,61.54
2018-06-18T15:14:12.501Z,62.56
2018-06-18T15:16:42.284Z,63.04
2018-06-18T15:19:12.198Z,62.88
2018-06-18T15:21:46.292Z,63.08
2018-06-18T15:24:20.464Z,62.18
2018-06-18T15:26:50.326Z,62.86
2018-06-18T15:29:20.153Z,62.85
2018-06-18T15:31:50.025Z,62.33
2018-06-18T15:34:19.856Z,62.26
2018-06-18T15:36:49.745Z,58.97
2018-06-18T15:39:19.624Z,58.13
2018-06-18T15:41:49.501Z,57.58
2018-06-18T15:44:19.297Z,56.78
2018-06-18T15:46:49.276Z,58.76
2018-06-18T15:49:19.139Z,59.35
2018-06-18T15:51:48.928Z,57.88
2018-06-18T15:54:18.807Z,57.13
2018-06-18T15:56:48.853Z,55.96
2018-06-18T15:59:18.716Z,55.01
2018-06-18T16:01:48.554Z,58.05
2018-06-18T16:04:18.403Z,56.64
2018-06-18T16:06:48.227Z,56.76
2018-06-18T16:09:18.099Z,55.83
2018-06-18T16:11:47.935Z,55.73
2018-06-18T16:14:17.764Z,55.81
2018-06-18T16:16:47.663Z,56.36
2018-06-18T16:19:17.496Z,55.13
2018-06-18T16:21:47.393Z,54.18
2018-06-18T16:24:17.264Z,55.12
2018-06-18T16:26:47.095Z,54.35
2018-06-18T16:29:16.928Z,55.59
2018-06-18T16:31:46.804Z,55.22
2018-06-18T16:34:16.631Z,53.56
2018-06-18T16:36:46.472Z,53.71
2018-06-18T16:39:16.268Z,53.44
2018-06-18T16:41:46.110Z,54.36
2018-06-18T16:44:15.936Z,54.89
2018-06-18T16:46:45.767Z,56.47
2018-06-18T16:49:15.652Z,56.07
2018-06-18T16:51:45.492Z,56.56
2018-06-18T16:54:15.355Z,57.76
2018-06-18T16:56:45.192Z,56.40
2018-06-18T16:59:15.004Z,57.84
2018-06-18T17:01:44.864Z,57.74
2018-06-18T17:04:14.725Z,57.80
2018-06-18T17:06:44.548Z,59.80
2018-06-18T17:09:14.382Z,59.64
2018-06-18T17:11:44.204Z,59.75
2018-06-18T17:14:14.025Z,60.58
2018-06-18T17:16:43.946Z,60.37
2018-06-18T17:19:13.697Z,60.99
2018-06-18T17:21:43.616Z,61.09
2018-06-18T17:24:13.407Z,60.91
2018-06-18T17:26:43.240Z,61.87
2018-06-18T17:29:13.109Z,61.90
2018-06-18T17:31:42.939Z,61.51
2018-06-18T17:34:12.856Z,60.70
2018-06-18T17:36:42.680Z,61.36
2018-06-18T17:39:13.783Z,60.94
2018-06-18T17:41:43.567Z,61.36
2018-06-18T17:44:13.449Z,61.95
2018-06-18T17:46:43.280Z,61.77
2018-06-18T17:49:13.076Z,61.67
2018-06-18T17:51:42.988Z,61.98
2018-06-18T17:54:12.829Z,61.85
2018-06-18T17:56:42.703Z,62.19
2018-06-18T17:59:12.516Z,62.28
2018-06-18T18:01:42.460Z,62.07
2018-06-18T18:04:12.273Z,62.09
2018-06-18T18:06:42.187Z,62.80
2018-06-18T18:09:12.186Z,62.78
2018-06-18T18:11:42.137Z,62.75
2018-06-18T18:14:11.970Z,63.38
2018-06-18T18:16:41.814Z,64.24
2018-06-18T18:19:11.617Z,65.09
2018-06-18T18:21:41.496Z,66.74
2018-06-18T18:24:11.348Z,66.86
2018-06-18T18:26:41.184Z,67.41
2018-06-18T18:29:11.024Z,67.57
2018-06-18T18:31:40.943Z,67.61
2018-06-18T18:34:10.752Z,68.36
2018-06-18T18:36:40.592Z,68.60
2018-06-18T18:39:10.876Z,69.15
2018-06-18T18:41:40.778Z,69.69
2018-06-18T18:44:11.060Z,69.49
2018-06-18T18:46:40.905Z,69.78
2018-06-18T18:49:10.803Z,69.62
2018-06-18T18:51:40.596Z,69.52
2018-06-18T18:54:23.377Z,69.09
2018-06-18T18:57:03.980Z,68.02
2018-06-18T18:59:35.252Z,67.38
2018-06-18T19:02:05.121Z,67.14
2018-06-18T19:04:55.572Z,67.46
2018-06-18T19:07:30.929Z,67.87
2018-06-18T19:10:13.058Z,68.65
2018-06-18T19:12:42.958Z,67.34
2018-06-18T19:15:12.792Z,66.95
2018-06-18T19:17:42.644Z,67.01
2018-06-18T19:20:20.489Z,67.37
2018-06-18T19:22:50.312Z,67.79
2018-06-18T19:25:20.153Z,67.94
2018-06-18T19:27:49.980Z,67.59
2018-06-18T19:30:19.813Z,67.80
2018-06-18T19:32:50.260Z,67.02
2018-06-18T19:35:20.088Z,67.28
2018-06-18T19:37:49.917Z,67.99
2018-06-18T19:40:19.765Z,67.16
2018-06-18T19:42:49.591Z,67.34
2018-06-18T19:45:21.076Z,67.63
2018-06-18T19:48:01.253Z,67.78
2018-06-18T19:50:31.182Z,67.95
2018-06-18T19:53:01.124Z,67.54
2018-06-18T19:55:32.770Z,67.73
2018-06-18T19:58:02.638Z,67.11
2018-06-18T20:00:38.848Z,66.61
2018-06-18T20:03:08.719Z,67.66
2018-06-18T20:05:38.640Z,66.75
2018-06-18T20:08:11.390Z,66.70
2018-06-18T20:10:41.241Z,67.12
2018-06-18T20:13:11.094Z,66.26
2018-06-18T20:15:40.981Z,66.30
2018-06-18T20:18:10.772Z,66.43
2018-06-18T20:20:40.664Z,65.96
2018-06-18T20:23:13.548Z,66.81
2018-06-18T20:25:49.616Z,66.79
2018-06-18T20:28:19.484Z,67.60
2018-06-18T20:30:49.293Z,67.04
2018-06-18T20:33:20.257Z,67.46
2018-06-18T20:35:58.156Z,67.00
2018-06-18T20:38:27.965Z,67.28
2018-06-18T20:40:57.835Z,67.35
2018-06-18T20:43:30.521Z,67.23
2018-06-18T20:46:00.329Z,66.84
2018-06-18T20:48:30.181Z,67.24
2018-06-18T20:51:00.017Z,67.58
2018-06-18T20:53:29.861Z,67.59
2018-06-18T20:55:59.657Z,68.61
2018-06-18T20:58:29.492Z,68.67
2018-06-18T21:00:59.392Z,68.62
2018-06-18T21:03:29.127Z,69.30
2018-06-18T21:05:58.931Z,68.53
2018-06-18T21:08:28.672Z,68.51
2018-06-18T21:10:58.518Z,68.59
2018-06-18T21:13:28.255Z,68.00
2018-06-18T21:15:58.168Z,68.18
2018-06-18T21:18:27.946Z,68.15
2018-06-18T21:20:57.745Z,67.85
2018-06-18T21:23:27.514Z,67.71
2018-06-18T21:25:57.271Z,67.54
2018-06-18T21:28:27.024Z,67.08
2018-06-18T21:30:56.799Z,67.27
2018-06-18T21:33:26.591Z,66.84
2018-06-18T21:35:56.371Z,66.96
2018-06-18T21:38:26.145Z,66.56
2018-06-18T21:40:55.931Z,66.21
2018-06-18T21:43:25.828Z,66.15
2018-06-18T21:45:55.591Z,65.61
2018-06-18T21:48:25.347Z,65.64
2018-06-18T21:50:55.173Z,65.34
2018-06-18T21:53:24.993Z,64.61
2018-06-18T21:55:54.863Z,64.64
2018-06-18T21:58:24.676Z,64.46
2018-06-18T22:00:54.576Z,64.96
2018-06-18T22:03:24.460Z,64.51
2018-06-18T22:05:54.376Z,64.65
2018-06-18T22:08:25.618Z,65.41
2018-06-18T22:10:55.489Z,64.80
2018-06-18T22:13:25.395Z,65.26
2018-06-18T22:15:55.268Z,64.80
2018-06-18T22:18:25.160Z,65.26
2018-06-18T22:20:54.965Z,64.72
2018-06-18T22:23:24.864Z,64.83
2018-06-18T22:25:54.706Z,65.11
2018-06-18T22:28:31.572Z,65.05
2018-06-18T22:31:01.460Z,64.28
2018-06-18T22:33:31.347Z,64.23
2018-06-18T22:36:01.257Z,64.78
2018-06-18T22:38:31.168Z,64.83
2018-06-18T22:41:01.003Z,64.40
2018-06-18T22:43:30.864Z,65.07
2018-06-18T22:46:00.784Z,65.34
2018-06-18T22:48:30.653Z,65.21
2018-06-18T22:51:00.522Z,65.62
2018-06-18T22:53:30.329Z,65.53
2018-06-18T22:56:00.177Z,66.24
2018-06-18T22:58:30.033Z,66.35
2018-06-18T23:01:00.764Z,66.76
2018-06-18T23:03:30.638Z,67.55
2018-06-18T23:06:00.648Z,67.09
2018-06-18T23:08:30.493Z,67.71
2018-06-18T23:11:00.387Z,67.65
2018-06-18T23:13:32.500Z,68.17
2018-06-18T23:16:03.367Z,68.65
2018-06-18T23:18:33.248Z,67.89
2018-06-18T23:21:03.124Z,68.22
2018-06-18T23:23:33.012Z,68.22
2018-06-18T23:26:02.950Z,68.93
2018-06-18T23:28:40.988Z,68.59
2018-06-18T23:31:10.828Z,68.99
2018-06-18T23:33:40.683Z,69.20
2018-06-18T23:36:10.556Z,69.09
2018-06-18T23:38:40.364Z,68.98
2018-06-18T23:41:10.260Z,69.54
2018-06-18T23:43:40.103Z,69.05
2018-06-18T23:46:09.925Z,69.98
2018-06-18T23:48:39.768Z,69.12
2018-06-18T23:51:09.605Z,69.08
2018-06-18T23:53:39.504Z,69.51
2018-06-18T23:56:09.332Z,69.28
2018-06-18T23:58:39.196Z,69.55
